Montreal, Canada
Current Conditions -  °F | °C
As of 9:02 AM on Thursday 23 Oct 2014 (Local Time) from CYHU Reporting Station
Overcast Overcast  
Wind Chill:   Ceiling: 1800
Heat Index:   Visibility: 9mi
Dew Point:   Wind: 18mph
Humidity: 76%   Direction: 30°NNE
Pressure: 30.08"   Gusts: 28mph
Location:  45.51°N, 73.55°W
Report Text: CYHU 231302Z AUTO 03016G24KT 9SM BKN018 OVC044 07/03 A3008 RMK SLP187
Loading
Personal Weather Stations






























Interactive Weather Map New forecast layout! Learn more

10-Day Weather Forecast

Advertisements
Track Severe Weather on mobile